Time;durP1;ratioP1;P1;durP2;ratioP2;P2;SDS_P1;SDS_P2;PMS_P1;PMS_P2;Temp;Humidity;BMP_temperature;BMP_pressure;BME280_temperature;BME280_humidity;BME280_pressure;Samples;Min_cycle;Max_cycle;Signal;HPM_P1;HPM_P2
2021/08/04 00:01:37;;;;;;;;;;;;;;;19.53;75.29;99958.62;1656381;84;20364;-86
2021/08/04 00:04:03;;;;;;;;;;;;;;;19.48;75.36;99962.47;1688356;84;20515;-84
2021/08/04 00:06:28;;;;;;;;;;;;;;;19.52;75.40;99956.45;1652291;84;20747;-88
2021/08/04 00:08:56;;;;;;;;;;;;;;;19.53;75.41;99954.61;1661019;83;20174;-85
2021/08/04 00:11:24;;;;;;;;;;;;;;;19.46;75.86;99961.88;1688937;83;21238;-88
2021/08/04 00:13:55;;;;;;;;;;;;;;;19.50;75.56;99960.41;1664244;84;20131;-86
2021/08/04 00:16:20;;;;;;;;;;;;;;;19.40;76.20;99976.14;1687522;83;20154;-87
2021/08/04 00:18:47;;;;;;;;;;;;;;;19.34;76.29;99967.95;1663798;84;20160;-83
2021/08/04 00:21:12;;;;;;;;;;;;;;;19.41;76.42;99972.43;1687531;84;20174;-85
2021/08/04 00:23:39;;;;;;;;;;;;;;;19.43;76.23;99970.34;1692280;83;21222;-88
2021/08/04 00:26:06;;;;;;;;;;;;;;;19.33;76.79;99977.54;1678817;84;20169;-87
2021/08/04 00:28:32;;;;;;;;;;;;;;;19.29;76.97;99979.81;1687107;84;20162;-83
2021/08/04 00:30:59;;;;;;;;;;;;;;;19.25;77.19;99981.30;1684520;84;20125;-85
2021/08/04 00:33:25;;;;;;;;;;;;;;;19.33;77.07;99984.23;1686675;83;20128;-87
2021/08/04 00:35:50;;;;;;;;;;;;;;;19.35;76.95;99977.60;1688500;83;21021;-85
2021/08/04 00:38:20;;;;;;;;;;;;;;;19.30;77.16;99973.42;1684794;84;20173;-86
2021/08/04 00:40:49;;;;;;;;;;;;;;;19.21;77.69;99984.63;1667163;84;20180;-83
2021/08/04 00:43:14;;;;;;;;;;;;;;;19.15;78.06;99979.62;1683398;84;20166;-84
2021/08/04 00:45:40;;;;;;;;;;;;;;;19.18;78.24;99984.53;1687817;84;20494;-84
2021/08/04 00:48:07;;;;;;;;;;;;;;;19.25;77.69;99981.30;1690009;84;21957;-86
2021/08/04 00:50:35;;;;;;;;;;;;;;;19.31;78.06;99988.97;1689787;84;20170;-85
2021/08/04 00:53:01;;;;;;;;;;;;;;;19.32;78.05;99986.07;1687576;83;20209;-87
2021/08/04 00:55:28;;;;;;;;;;;;;;;19.35;77.75;99981.62;1684314;83;21160;-85
2021/08/04 00:57:55;;;;;;;;;;;;;;;19.27;78.46;99985.91;1666773;84;20583;-85
2021/08/04 01:00:21;;;;;;;;;;;;;;;19.28;78.35;99984.05;1689918;84;21251;-87
2021/08/04 01:02:56;;;;;;;;;;;;;;;19.22;78.65;99975.05;1657187;84;20967;-84
2021/08/04 01:05:27;;;;;;;;;;;;;;;19.25;78.68;99977.29;1683965;83;20149;-83
2021/08/04 01:08:06;;;;;;;;;;;;;;;19.29;78.62;99978.47;1665255;84;20226;-85
2021/08/04 01:10:33;;;;;;;;;;;;;;;19.24;78.59;99978.31;1683401;84;20191;-85
2021/08/04 01:13:08;;;;;;;;;;;;;;;19.15;78.99;99977.75;1677497;84;21267;-87
2021/08/04 01:15:43;;;;;;;;;;;;;;;19.12;78.99;99966.67;1653490;84;20890;-85
2021/08/04 01:18:11;;;;;;;;;;;;;;;19.11;79.33;99959.66;1679646;84;20465;-85
2021/08/04 01:20:38;;;;;;;;;;;;;;;19.14;79.17;99961.91;1681047;83;20206;-88
2021/08/04 01:23:14;;;;;;;;;;;;;;;19.07;79.52;99969.19;1679132;83;20222;-84
2021/08/04 01:26:03;;;;;;;;;;;;;;;18.96;80.02;99968.83;1675186;84;22614;-83
2021/08/04 01:28:32;;;;;;;;;;;;;;;18.94;80.15;99960.70;1679571;83;20485;-83
2021/08/04 01:31:12;;;;;;;;;;;;;;;19.00;79.66;99956.66;1676243;83;20210;-83
2021/08/04 01:33:39;;;;;;;;;;;;;;;19.04;79.40;99959.72;1679689;83;20182;-84
2021/08/04 01:36:06;;;;;;;;;;;;;;;19.06;79.30;99959.50;1663462;83;20198;-83
2021/08/04 01:38:33;;;;;;;;;;;;;;;19.13;79.04;99962.96;1679523;83;21038;-82
2021/08/04 01:41:01;;;;;;;;;;;;;;;19.13;79.12;99960.28;1677576;84;20978;-86
2021/08/04 01:43:26;;;;;;;;;;;;;;;19.18;78.90;99961.78;1679608;83;20151;-83
2021/08/04 01:45:53;;;;;;;;;;;;;;;19.22;78.62;99960.82;1680692;84;20685;-82
2021/08/04 01:48:19;;;;;;;;;;;;;;;19.19;78.79;99968.78;1654445;84;20210;-84
2021/08/04 01:50:45;;;;;;;;;;;;;;;19.20;78.54;99969.06;1677082;84;21098;-83
2021/08/04 01:53:13;;;;;;;;;;;;;;;19.21;78.46;99962.69;1674443;83;20174;-84
2021/08/04 01:55:38;;;;;;;;;;;;;;;19.21;78.83;99968.04;1679699;83;20503;-84
2021/08/04 01:58:04;;;;;;;;;;;;;;;19.10;79.12;99960.72;1654701;84;21400;-84
2021/08/04 02:00:30;;;;;;;;;;;;;;;18.99;79.63;99964.38;1681428;83;20174;-85
2021/08/04 02:02:55;;;;;;;;;;;;;;;18.92;79.99;99959.58;1678730;83;21182;-87
2021/08/04 02:05:24;;;;;;;;;;;;;;;18.83;80.31;99948.30;1680379;84;20630;-84
2021/08/04 02:08:14;;;;;;;;;;;;;;;18.86;80.41;99947.06;1675820;83;20188;-83
2021/08/04 02:10:54;;;;;;;;;;;;;;;18.89;80.50;99947.97;1679693;84;20181;-86
2021/08/04 02:13:30;;;;;;;;;;;;;;;18.73;80.99;99934.56;1689723;84;20191;-86
2021/08/04 02:16:11;;;;;;;;;;;;;;;18.74;81.05;99941.56;1688191;84;20530;-84
2021/08/04 02:18:41;;;;;;;;;;;;;;;18.64;81.28;99952.74;1650091;84;20153;-84
2021/08/04 02:21:06;;;;;;;;;;;;;;;18.55;81.81;99931.29;1689433;84;20115;-84
2021/08/04 02:23:37;;;;;;;;;;;;;;;18.66;81.68;99931.13;1659368;84;20279;-84
2021/08/04 02:26:10;;;;;;;;;;;;;;;18.63;81.73;99932.37;1691810;83;20174;-84
2021/08/04 02:28:36;;;;;;;;;;;;;;;18.68;81.60;99936.27;1667954;84;22569;-84
2021/08/04 02:31:03;;;;;;;;;;;;;;;18.71;81.39;99946.53;1687867;83;20509;-84
2021/08/04 02:33:32;;;;;;;;;;;;;;;18.65;81.48;99936.16;1687922;83;20182;-84
2021/08/04 02:35:57;;;;;;;;;;;;;;;18.68;81.43;99939.75;1688435;84;20194;-85
2021/08/04 02:38:26;;;;;;;;;;;;;;;18.73;81.37;99939.11;1664204;83;20138;-86
2021/08/04 02:40:55;;;;;;;;;;;;;;;18.73;81.28;99943.12;1660942;84;20208;-85
2021/08/04 02:43:23;;;;;;;;;;;;;;;18.70;81.39;99944.88;1660929;84;20139;-85
2021/08/04 02:45:51;;;;;;;;;;;;;;;18.72;81.37;99945.48;1691559;84;20184;-85
2021/08/04 02:48:19;;;;;;;;;;;;;;;18.70;81.42;99944.88;1659560;84;20223;-86
2021/08/04 02:50:48;;;;;;;;;;;;;;;18.71;81.39;99940.66;1675820;84;20434;-86
2021/08/04 02:53:17;;;;;;;;;;;;;;;18.78;81.10;99935.26;1685897;83;22046;-85
2021/08/04 02:55:45;;;;;;;;;;;;;;;18.77;81.34;99930.96;1687363;83;20142;-86
2021/08/04 02:58:15;;;;;;;;;;;;;;;18.66;81.79;99931.13;1683249;84;20306;-85
2021/08/04 03:00:41;;;;;;;;;;;;;;;18.60;82.11;99934.66;1687044;83;20300;-86
2021/08/04 03:03:06;;;;;;;;;;;;;;;18.50;82.82;99924.93;1686048;84;20279;-85
2021/08/04 03:05:37;;;;;;;;;;;;;;;18.44;83.20;99925.26;1686341;83;21163;-86
2021/08/04 03:08:04;;;;;;;;;;;;;;;18.40;83.65;99922.20;1687365;84;20150;-85
2021/08/04 03:10:30;;;;;;;;;;;;;;;18.45;83.51;99924.23;1656035;84;20239;-86
2021/08/04 03:12:57;;;;;;;;;;;;;;;18.47;83.35;99920.33;1690029;83;20158;-85
2021/08/04 03:15:28;;;;;;;;;;;;;;;18.44;83.87;99917.23;1688247;84;20248;-85
2021/08/04 03:17:53;;;;;;;;;;;;;;;18.44;84.12;99918.58;1685940;84;20137;-86
2021/08/04 03:20:21;;;;;;;;;;;;;;;18.50;83.79;99924.41;1690257;84;20319;-86
2021/08/04 03:22:49;;;;;;;;;;;;;;;18.53;83.93;99923.17;1688813;84;20162;-86
2021/08/04 03:25:16;;;;;;;;;;;;;;;18.58;83.79;99927.34;1691061;84;20158;-84
2021/08/04 03:27:44;;;;;;;;;;;;;;;18.55;83.78;99923.27;1687000;84;20248;-84
2021/08/04 03:30:10;;;;;;;;;;;;;;;18.61;83.53;99930.44;1688056;84;21080;-84
2021/08/04 03:32:38;;;;;;;;;;;;;;;18.61;83.54;99937.12;1661704;84;20210;-84
2021/08/04 03:35:09;;;;;;;;;;;;;;;18.61;83.44;99938.45;1690772;84;21079;-84
2021/08/04 03:37:34;;;;;;;;;;;;;;;18.65;83.29;99940.18;1689589;83;20198;-87
2021/08/04 03:40:00;;;;;;;;;;;;;;;18.68;83.05;99945.63;1682570;83;20174;-83
2021/08/04 03:42:25;;;;;;;;;;;;;;;18.66;83.06;99946.65;1686231;84;21088;-83
2021/08/04 03:44:52;;;;;;;;;;;;;;;18.68;82.96;99942.95;1687794;84;20527;-82
2021/08/04 03:47:18;;;;;;;;;;;;;;;18.70;82.84;99944.88;1686699;84;20147;-84
2021/08/04 03:49:45;;;;;;;;;;;;;;;18.75;82.58;99941.88;1688104;83;20141;-85
2021/08/04 03:52:12;;;;;;;;;;;;;;;18.68;82.74;99938.94;1665651;84;20146;-85
2021/08/04 03:54:39;;;;;;;;;;;;;;;18.74;82.52;99935.41;1686708;84;21109;-88
2021/08/04 03:57:07;;;;;;;;;;;;;;;18.70;82.98;99943.55;1691019;84;20519;-88
2021/08/04 03:59:32;;;;;;;;;;;;;;;18.63;83.23;99935.05;1687399;83;20266;-88
2021/08/04 04:01:58;;;;;;;;;;;;;;;18.62;83.36;99942.75;1691576;84;21157;-89
2021/08/04 04:04:23;;;;;;;;;;;;;;;18.44;83.90;99941.30;1691398;83;20167;-86
2021/08/04 04:06:49;;;;;;;;;;;;;;;18.43;84.37;99941.02;1685404;84;21257;-85
2021/08/04 04:09:18;;;;;;;;;;;;;;;18.38;84.57;99942.15;1686264;83;20359;-88
2021/08/04 04:11:45;;;;;;;;;;;;;;;18.40;84.73;99954.81;1687404;84;20653;-88
2021/08/04 04:14:13;;;;;;;;;;;;;;;18.38;84.83;99963.54;1651566;84;20159;-87
2021/08/04 04:16:38;;;;;;;;;;;;;;;18.43;84.70;99959.20;1677302;84;20174;-87
2021/08/04 04:19:04;;;;;;;;;;;;;;;18.46;84.65;99958.78;1675783;84;21235;-88
2021/08/04 04:21:32;;;;;;;;;;;;;;;18.51;84.64;99960.82;1682120;84;20174;-90
2021/08/04 04:23:58;;;;;;;;;;;;;;;18.53;84.33;99956.06;1669925;84;20175;-87
2021/08/04 04:26:23;;;;;;;;;;;;;;;18.54;84.28;99968.41;1681556;84;20456;-86
2021/08/04 04:28:49;;;;;;;;;;;;;;;18.56;83.90;99959.66;1679968;84;20134;-85
2021/08/04 04:31:18;;;;;;;;;;;;;;;18.68;83.70;99963.02;1682099;83;21270;-88
2021/08/04 04:33:45;;;;;;;;;;;;;;;18.71;83.29;99965.26;1677658;84;20460;-89
2021/08/04 04:36:17;;;;;;;;;;;;;;;18.73;83.26;99969.87;1673946;84;20154;-86
2021/08/04 04:38:45;;;;;;;;;;;;;;;18.75;83.27;99975.31;1666104;84;20483;-86
2021/08/04 04:41:14;;;;;;;;;;;;;;;18.83;83.06;99972.88;1674034;83;20173;-89
2021/08/04 04:43:41;;;;;;;;;;;;;;;18.86;82.89;99964.98;1684017;83;20111;-86
2021/08/04 04:46:08;;;;;;;;;;;;;;;18.89;82.83;99968.03;1686894;83;20503;-85
2021/08/04 04:48:35;;;;;;;;;;;;;;;18.95;82.73;99975.20;1661731;84;20214;-85
2021/08/04 04:51:01;;;;;;;;;;;;;;;19.04;82.59;99968.27;1674345;83;20206;-84
2021/08/04 04:53:27;;;;;;;;;;;;;;;19.12;82.37;99970.68;1681846;84;20502;-83
2021/08/04 04:55:55;;;;;;;;;;;;;;;19.17;82.28;99974.86;1683262;83;21137;-83
2021/08/04 04:58:21;;;;;;;;;;;;;;;19.14;82.32;99984.16;1680693;84;20280;-83
2021/08/04 05:00:51;;;;;;;;;;;;;;;19.08;82.58;99973.48;1682835;83;20155;-86
2021/08/04 05:03:17;;;;;;;;;;;;;;;19.06;82.89;99970.20;1682935;84;20191;-83
2021/08/04 05:05:42;;;;;;;;;;;;;;;19.13;82.66;99976.34;1681062;83;20166;-84
2021/08/04 05:08:08;;;;;;;;;;;;;;;19.15;82.29;99986.31;1680229;84;21891;-83
2021/08/04 05:10:33;;;;;;;;;;;;;;;19.19;82.16;99987.53;1676439;84;20141;-85
2021/08/04 05:12:59;;;;;;;;;;;;;;;19.16;82.17;99983.94;1682108;84;20171;-83
2021/08/04 05:15:25;;;;;;;;;;;;;;;19.13;82.13;99987.05;1684973;84;20146;-83
2021/08/04 05:17:55;;;;;;;;;;;;;;;19.08;82.49;99981.02;1681382;83;20188;-84
2021/08/04 05:20:21;;;;;;;;;;;;;;;19.10;82.80;99976.78;1682813;83;21103;-85
2021/08/04 05:22:51;;;;;;;;;;;;;;;19.15;82.37;99975.60;1684085;83;20297;-84
2021/08/04 05:25:16;;;;;;;;;;;;;;;19.11;82.61;99978.40;1684951;83;20115;-84
2021/08/04 05:27:42;;;;;;;;;;;;;;;19.09;82.41;99978.61;1684039;83;20139;-85
2021/08/04 05:30:12;;;;;;;;;;;;;;;18.99;82.56;99973.75;1687903;83;20304;-84
2021/08/04 05:32:39;;;;;;;;;;;;;;;18.94;82.78;99974.92;1681954;84;20660;-85
2021/08/04 05:35:07;;;;;;;;;;;;;;;18.91;82.76;99970.00;1686069;84;20189;-86
2021/08/04 05:37:35;;;;;;;;;;;;;;;19.00;83.03;99963.36;1685232;84;20445;-86
2021/08/04 05:40:04;;;;;;;;;;;;;;;19.08;82.68;99968.13;1685795;83;20912;-88
2021/08/04 05:42:32;;;;;;;;;;;;;;;19.15;82.58;99972.92;1684568;83;20173;-85
2021/08/04 05:44:57;;;;;;;;;;;;;;;19.19;82.03;99974.95;1684916;83;21244;-85
2021/08/04 05:47:25;;;;;;;;;;;;;;;19.24;81.89;99972.15;1683823;83;20528;-84
2021/08/04 05:49:51;;;;;;;;;;;;;;;19.26;81.93;99978.09;1685113;83;20595;-85
2021/08/04 05:52:20;;;;;;;;;;;;;;;19.25;82.30;99975.95;1659472;84;20178;-84
2021/08/04 05:54:46;;;;;;;;;;;;;;;19.18;81.61;99972.48;1663688;84;20183;-84
2021/08/04 05:57:14;;;;;;;;;;;;;;;19.14;81.96;99973.95;1685285;84;21173;-85
2021/08/04 05:59:39;;;;;;;;;;;;;;;19.21;82.06;99982.77;1681153;84;20514;-83
2021/08/04 06:02:05;;;;;;;;;;;;;;;19.29;82.07;99983.02;1685537;84;20142;-83
2021/08/04 06:04:32;;;;;;;;;;;;;;;19.28;81.35;99982.70;1682862;84;20184;-82
2021/08/04 06:06:58;;;;;;;;;;;;;;;19.15;82.00;99994.34;1684232;83;20524;-82
2021/08/04 06:09:29;;;;;;;;;;;;;;;19.07;82.35;99999.43;1661145;84;21099;-84
2021/08/04 06:11:56;;;;;;;;;;;;;;;18.78;83.73;100009.67;1658664;84;20242;-87
2021/08/04 06:14:24;;;;;;;;;;;;;;;18.66;85.26;100029.56;1652985;86;20233;-84
2021/08/04 06:16:50;;;;;;;;;;;;;;;18.42;86.54;100035.09;1629641;85;20177;-84
2021/08/04 06:19:17;;;;;;;;;;;;;;;18.43;86.44;100025.24;1656257;84;20145;-84
2021/08/04 06:21:44;;;;;;;;;;;;;;;18.41;86.61;100022.78;1655554;84;21102;-84
2021/08/04 06:24:09;;;;;;;;;;;;;;;18.42;86.25;100023.59;1628727;86;20222;-84
2021/08/04 06:26:37;;;;;;;;;;;;;;;18.33;86.50;100028.86;1655114;84;20187;-83
2021/08/04 06:29:02;;;;;;;;;;;;;;;18.37;86.41;100026.08;1653111;86;20228;-84
2021/08/04 06:31:30;;;;;;;;;;;;;;;18.45;86.37;100020.49;1654835;85;20146;-82
2021/08/04 06:33:57;;;;;;;;;;;;;;;18.51;85.96;100019.65;1654050;85;21183;-84
2021/08/04 06:36:23;;;;;;;;;;;;;;;18.50;86.62;100019.34;1657980;85;20144;-86
2021/08/04 06:38:50;;;;;;;;;;;;;;;18.56;86.57;100020.35;1634068;86;20322;-84
2021/08/04 06:41:16;;;;;;;;;;;;;;;18.64;86.41;100024.95;1656255;85;20398;-83
2021/08/04 06:43:42;;;;;;;;;;;;;;;18.68;85.88;100019.18;1656347;85;20224;-83
2021/08/04 06:46:13;;;;;;;;;;;;;;;18.71;85.48;100021.43;1656909;85;21105;-84
2021/08/04 06:48:40;;;;;;;;;;;;;;;18.66;85.65;100026.89;1655545;85;20251;-85
2021/08/04 06:51:06;;;;;;;;;;;;;;;18.79;85.67;100023.86;1654049;84;20208;-82
2021/08/04 06:53:31;;;;;;;;;;;;;;;18.87;85.00;100015.60;1655078;84;20214;-82
2021/08/04 06:55:59;;;;;;;;;;;;;;;18.82;84.46;100018.08;1652367;84;20134;-84
2021/08/04 06:58:24;;;;;;;;;;;;;;;18.75;85.25;100020.80;1655862;84;20140;-86
2021/08/04 07:00:50;;;;;;;;;;;;;;;18.68;86.01;100017.84;1653648;85;20212;-83
2021/08/04 07:03:17;;;;;;;;;;;;;;;18.58;85.78;100012.44;1630585;85;20459;-88
2021/08/04 07:05:43;;;;;;;;;;;;;;;18.63;85.43;100015.28;1652968;85;20189;-84
2021/08/04 07:08:09;;;;;;;;;;;;;;;18.83;85.11;100011.67;1627103;84;20247;-85
2021/08/04 07:10:34;;;;;;;;;;;;;;;18.93;84.84;100013.94;1657995;84;21165;-86
2021/08/04 07:13:02;;;;;;;;;;;;;;;19.04;84.15;100008.42;1668621;84;20486;-86
2021/08/04 07:15:30;;;;;;;;;;;;;;;19.09;83.62;100008.05;1690665;83;20194;-85
2021/08/04 07:17:55;;;;;;;;;;;;;;;19.13;83.65;100013.30;1690419;84;20562;-86
2021/08/04 07:20:21;;;;;;;;;;;;;;;19.22;83.42;100017.03;1687781;84;20166;-85
2021/08/04 07:22:48;;;;;;;;;;;;;;;19.17;82.93;100020.36;1687187;84;21082;-86
2021/08/04 07:25:17;;;;;;;;;;;;;;;19.20;83.23;100017.25;1685659;84;20154;-85
2021/08/04 07:27:48;;;;;;;;;;;;;;;19.28;83.82;100019.69;1690371;83;20204;-85
2021/08/04 07:30:13;;;;;;;;;;;;;;;19.36;84.14;100016.73;1688917;83;20210;-85
2021/08/04 07:32:39;;;;;;;;;;;;;;;19.43;83.12;100018.55;1683583;84;20261;-88
2021/08/04 07:35:06;;;;;;;;;;;;;;;19.46;83.03;100020.79;1686281;83;21959;-86
2021/08/04 07:37:31;;;;;;;;;;;;;;;19.51;82.98;100016.44;1687882;83;20189;-84
2021/08/04 07:40:01;;;;;;;;;;;;;;;19.57;82.69;100019.27;1687948;84;20158;-83
2021/08/04 07:42:27;;;;;;;;;;;;;;;19.60;82.39;100013.47;1690655;83;20606;-86
2021/08/04 07:44:55;;;;;;;;;;;;;;;19.60;82.44;100018.30;1688783;84;20213;-83
2021/08/04 07:47:21;;;;;;;;;;;;;;;19.57;82.38;100019.27;1659844;84;20193;-86
2021/08/04 07:49:56;;;;;;;;;;;;;;;19.54;82.81;100018.67;1688739;83;20146;-85
2021/08/04 07:52:24;;;;;;;;;;;;;;;19.57;82.82;100020.08;1683108;84;20175;-85
2021/08/04 07:54:49;;;;;;;;;;;;;;;19.66;83.08;100021.97;1682388;84;20178;-85
2021/08/04 07:57:15;;;;;;;;;;;;;;;19.68;83.26;100016.67;1667574;84;20233;-84
2021/08/04 07:59:44;;;;;;;;;;;;;;;19.78;83.12;100020.25;1689959;83;21007;-84
2021/08/04 08:02:10;;;;;;;;;;;;;;;19.76;82.75;100022.80;1690458;84;20122;-84
2021/08/04 08:04:39;;;;;;;;;;;;;;;19.81;82.88;100025.67;1685366;84;20140;-85
2021/08/04 08:07:05;;;;;;;;;;;;;;;19.87;82.32;100026.13;1658112;84;20229;-85
2021/08/04 08:09:32;;;;;;;;;;;;;;;19.91;81.77;100023.31;1687562;83;20139;-85
2021/08/04 08:11:59;;;;;;;;;;;;;;;19.95;80.90;100027.20;1691699;84;21092;-87
2021/08/04 08:14:26;;;;;;;;;;;;;;;19.99;80.88;100027.58;1681764;83;20208;-85
2021/08/04 08:16:52;;;;;;;;;;;;;;;19.98;81.13;100033.97;1655459;84;20464;-86
2021/08/04 08:19:18;;;;;;;;;;;;;;;20.04;80.91;100021.86;1657343;84;20574;-90
2021/08/04 08:21:45;;;;;;;;;;;;;;;20.05;81.54;100030.18;1678233;84;20152;-88
2021/08/04 08:24:11;;;;;;;;;;;;;;;20.04;82.31;100028.56;1679984;84;21156;-85
2021/08/04 08:26:37;;;;;;;;;;;;;;;20.12;82.52;100026.61;1682624;83;20795;-85
2021/08/04 08:29:04;;;;;;;;;;;;;;;20.23;82.24;100033.94;1660447;84;20144;-85
2021/08/04 08:31:35;;;;;;;;;;;;;;;20.18;81.68;100026.56;1675481;83;20196;-87
2021/08/04 08:34:04;;;;;;;;;;;;;;;20.25;79.63;100026.48;1678754;83;20131;-84
2021/08/04 08:36:31;;;;;;;;;;;;;;;20.31;79.24;100020.23;1679608;83;21210;-87
2021/08/04 08:38:58;;;;;;;;;;;;;;;20.36;79.82;100020.37;1681341;84;20199;-82
2021/08/04 08:41:31;;;;;;;;;;;;;;;20.62;78.75;100021.11;1681151;83;20218;-83
2021/08/04 08:43:57;;;;;;;;;;;;;;;20.60;77.66;100018.65;1676264;84;21017;-83
2021/08/04 08:46:31;;;;;;;;;;;;;;;20.54;78.19;100025.42;1657342;84;20326;-83
2021/08/04 08:48:57;;;;;;;;;;;;;;;20.64;77.66;100027.06;1677148;83;20124;-84
2021/08/04 08:51:23;;;;;;;;;;;;;;;20.63;77.83;100028.94;1683554;83;20232;-82
2021/08/04 08:53:50;;;;;;;;;;;;;;;20.74;77.94;100026.55;1650474;84;20167;-85
2021/08/04 08:56:18;;;;;;;;;;;;;;;20.65;77.84;100028.73;1683980;84;20127;-84
2021/08/04 08:58:48;;;;;;;;;;;;;;;20.45;78.26;100028.41;1677593;83;20132;-84
2021/08/04 09:01:14;;;;;;;;;;;;;;;20.43;77.88;100030.52;1679474;84;21145;-83
2021/08/04 09:03:42;;;;;;;;;;;;;;;20.43;77.84;100029.17;1681226;84;20152;-85
2021/08/04 09:06:10;;;;;;;;;;;;;;;20.49;77.70;100037.35;1679983;83;20894;-87
2021/08/04 09:08:36;;;;;;;;;;;;;;;20.63;77.35;100042.85;1679227;83;20686;-84
2021/08/04 09:11:19;;;;;;;;;;;;;;;20.61;76.95;100043.61;1677446;84;20176;-85
2021/08/04 09:13:47;;;;;;;;;;;;;;;20.69;76.56;100036.61;1680862;84;21134;-83
2021/08/04 09:16:19;;;;;;;;;;;;;;;20.79;75.25;100040.94;1673965;84;20161;-84
2021/08/04 09:18:51;;;;;;;;;;;;;;;20.82;74.82;100041.52;1676210;84;20114;-84
2021/08/04 09:21:16;;;;;;;;;;;;;;;20.92;73.13;100041.80;1676324;84;20428;-83
2021/08/04 09:23:49;;;;;;;;;;;;;;;20.95;72.59;100034.64;1683120;82;21363;-85
2021/08/04 09:26:19;;;;;;;;;;;;;;;20.90;73.00;100033.17;1679702;84;20484;-84
2021/08/04 09:29:05;;;;;;;;;;;;;;;21.01;73.80;100033.73;1680885;84;20159;-84
2021/08/04 09:31:48;;;;;;;;;;;;;;;20.88;76.44;100040.61;1682320;83;20151;-84
2021/08/04 09:34:36;;;;;;;;;;;;;;;20.84;77.84;100037.57;1678516;84;20311;-84
2021/08/04 09:37:11;;;;;;;;;;;;;;;20.96;78.28;100034.95;1679785;84;20176;-83
2021/08/04 09:39:41;;;;;;;;;;;;;;;20.95;79.34;100027.93;1681132;84;21220;-86
2021/08/04 09:42:07;;;;;;;;;;;;;;;20.95;78.20;100022.56;1680600;83;20516;-86
2021/08/04 09:44:36;;;;;;;;;;;;;;;21.04;77.16;100028.44;1681714;84;20215;-87
2021/08/04 09:47:11;;;;;;;;;;;;;;;21.16;76.15;100019.37;1683006;84;20187;-85
2021/08/04 09:49:41;;;;;;;;;;;;;;;21.29;74.96;100022.91;1617513;87;20240;-85
2021/08/04 09:52:09;;;;;;;;;;;;;;;21.28;73.99;100018.57;1634645;85;20164;-86
2021/08/04 09:54:42;;;;;;;;;;;;;;;21.33;73.04;100011.97;1633296;87;20139;-85
2021/08/04 09:57:08;;;;;;;;;;;;;;;21.17;71.30;100012.12;1609460;87;20183;-85
2021/08/04 09:59:36;;;;;;;;;;;;;;;21.29;71.82;100017.53;1606056;86;20238;-80
2021/08/04 10:02:04;;;;;;;;;;;;;;;21.26;70.55;100015.30;1612978;87;20235;-84
2021/08/04 10:04:32;;;;;;;;;;;;;;;21.24;69.55;100017.38;1634381;86;20212;-91
2021/08/04 10:07:08;;;;;;;;;;;;;;;21.19;69.68;100019.95;1634480;86;20184;-83
2021/08/04 10:09:39;;;;;;;;;;;;;;;21.12;69.30;100020.86;1610788;85;32658;-85
2021/08/04 10:12:07;;;;;;;;;;;;;;;21.07;68.62;100031.48;1633471;86;20234;-88
2021/08/04 10:14:33;;;;;;;;;;;;;;;20.93;67.98;100047.48;1609534;87;20184;-84
2021/08/04 10:16:59;;;;;;;;;;;;;;;20.87;68.87;100049.73;1633152;85;22969;-86
2021/08/04 10:19:25;;;;;;;;;;;;;;;20.87;71.00;100044.36;1592537;85;20497;-84
2021/08/04 10:21:57;;;;;;;;;;;;;;;20.76;71.45;100046.75;1634027;85;20099;-83
2021/08/04 10:24:24;;;;;;;;;;;;;;;20.69;71.90;100052.72;1637229;85;20204;-85
2021/08/04 10:26:52;;;;;;;;;;;;;;;20.75;72.13;100047.79;1609984;86;20192;-87
2021/08/04 10:29:18;;;;;;;;;;;;;;;20.70;73.14;100050.34;1629850;85;21277;-83
2021/08/04 10:31:46;;;;;;;;;;;;;;;20.69;74.40;100051.38;1634163;85;20107;-84
2021/08/04 10:34:12;;;;;;;;;;;;;;;20.36;78.40;100053.89;1634186;85;20513;-84
2021/08/04 10:36:41;;;;;;;;;;;;;;;20.09;79.29;100066.23;1612096;87;20132;-84
2021/08/04 10:39:11;;;;;;;;;;;;;;;19.85;80.84;100066.55;1635193;87;20231;-83
2021/08/04 10:41:37;;;;;;;;;;;;;;;19.70;81.32;100068.20;1634504;85;21128;-85
2021/08/04 10:44:09;;;;;;;;;;;;;;;19.51;82.50;100063.80;1632696;86;20196;-86
2021/08/04 10:46:35;;;;;;;;;;;;;;;19.59;83.21;100063.53;1633242;86;20579;-87
2021/08/04 10:49:11;;;;;;;;;;;;;;;19.45;83.59;100070.02;1634278;85;20180;-82
2021/08/04 10:51:53;;;;;;;;;;;;;;;19.40;82.81;100068.52;1632511;86;20215;-84
2021/08/04 10:54:21;;;;;;;;;;;;;;;19.32;81.95;100069.08;1628244;85;22033;-83
2021/08/04 10:56:56;;;;;;;;;;;;;;;19.22;82.65;100078.11;1634568;85;20228;-83
2021/08/04 10:59:33;;;;;;;;;;;;;;;19.10;82.76;100073.14;1635332;85;20136;-86
2021/08/04 11:02:05;;;;;;;;;;;;;;;18.94;83.98;100074.42;1633583;85;20205;-84
2021/08/04 11:04:44;;;;;;;;;;;;;;;18.82;84.62;100076.94;1634292;85;20239;-84
2021/08/04 11:07:13;;;;;;;;;;;;;;;18.72;84.96;100076.55;1633686;85;20235;-88
2021/08/04 11:09:46;;;;;;;;;;;;;;;18.64;84.25;100074.44;1633080;87;20193;-84
2021/08/04 11:12:21;;;;;;;;;;;;;;;18.66;84.77;100071.03;1605490;87;20178;-86
2021/08/04 11:14:53;;;;;;;;;;;;;;;18.57;85.21;100078.98;1615915;86;20169;-94
2021/08/04 11:17:24;;;;;;;;;;;;;;;18.53;85.19;100078.27;1609133;87;20234;-83
2021/08/04 11:20:04;;;;;;;;;;;;;;;18.47;87.54;100074.57;1605125;87;21202;-84
2021/08/04 11:22:48;;;;;;;;;;;;;;;18.66;86.75;100073.70;1607617;87;20145;-87
2021/08/04 11:25:38;;;;;;;;;;;;;;;18.70;84.92;100073.28;1583824;87;20308;-85
2021/08/04 11:28:06;;;;;;;;;;;;;;;18.69;84.17;100072.47;1609611;87;20228;-84
2021/08/04 11:30:38;;;;;;;;;;;;;;;18.65;84.12;100066.70;1609918;87;20542;-85
2021/08/04 11:33:36;;;;;;;;;;;;;;;18.69;86.24;100063.60;1589436;87;21059;-84
2021/08/04 11:36:08;;;;;;;;;;;;;;;18.86;85.60;100058.63;1609743;87;20169;-88
2021/08/04 11:38:35;;;;;;;;;;;;;;;18.70;82.90;100061.24;1611304;87;20193;-87
2021/08/04 11:41:15;;;;;;;;;;;;;;;18.66;83.67;100064.87;1607301;87;20259;-85
2021/08/04 11:43:41;;;;;;;;;;;;;;;18.60;84.14;100066.52;1608307;87;20208;-86
2021/08/04 11:46:08;;;;;;;;;;;;;;;18.54;85.49;100068.70;1611498;87;21171;-85
2021/08/04 11:48:52;;;;;;;;;;;;;;;18.62;85.32;100064.45;1608935;87;20303;-85
2021/08/04 11:51:30;;;;;;;;;;;;;;;18.70;86.19;100061.24;1607291;87;20186;-87
2021/08/04 11:53:56;;;;;;;;;;;;;;;18.58;84.58;100059.73;1590709;87;21507;-84
2021/08/04 11:56:23;;;;;;;;;;;;;;;18.61;84.35;100064.66;1615395;87;20153;-86
2021/08/04 11:58:49;;;;;;;;;;;;;;;18.61;84.25;100060.15;1593022;87;21010;-86
2021/08/04 12:01:23;;;;;;;;;;;;;;;18.76;84.88;100061.73;1612606;87;20216;-87
2021/08/04 12:04:07;;;;;;;;;;;;;;;18.92;84.18;100059.92;1610484;87;20190;-85
2021/08/04 12:06:37;;;;;;;;;;;;;;;18.99;84.34;100061.25;1615792;87;20223;-84
2021/08/04 12:09:24;;;;;;;;;;;;;;;18.87;83.62;100058.41;1614094;87;20211;-85
2021/08/04 12:11:50;;;;;;;;;;;;;;;18.98;83.87;100056.39;1611934;87;21281;-87
2021/08/04 12:14:19;;;;;;;;;;;;;;;18.82;84.21;100050.19;1622193;86;20216;-87
2021/08/04 12:16:51;;;;;;;;;;;;;;;18.62;86.30;100022.99;1637956;86;20472;-85
2021/08/04 12:19:35;;;;;;;;;;;;;;;18.80;86.32;100046.91;1617320;87;20236;-85
2021/08/04 12:22:01;;;;;;;;;;;;;;;18.75;86.67;100041.36;1638351;85;20187;-84
2021/08/04 12:24:27;;;;;;;;;;;;;;;19.00;86.24;100036.95;1639578;87;21114;-89
2021/08/04 12:26:52;;;;;;;;;;;;;;;18.95;86.24;100039.42;1637005;86;20209;-88
2021/08/04 12:29:27;;;;;;;;;;;;;;;18.79;85.59;100038.04;1639939;86;20174;-86
2021/08/04 12:32:15;;;;;;;;;;;;;;;18.76;87.89;100032.30;1635263;86;20159;-84
2021/08/04 12:34:52;;;;;;;;;;;;;;;18.96;86.17;100027.70;1638485;86;20603;-86
2021/08/04 12:37:18;;;;;;;;;;;;;;;19.06;87.21;100031.77;1639685;85;21257;-85
2021/08/04 12:39:44;;;;;;;;;;;;;;;19.10;88.27;100030.31;1640133;85;20320;-86
2021/08/04 12:42:21;;;;;;;;;;;;;;;19.11;87.03;100026.58;1639226;85;20519;-83
2021/08/04 12:44:47;;;;;;;;;;;;;;;19.26;87.40;100023.61;1639074;86;20656;-86
2021/08/04 12:47:17;;;;;;;;;;;;;;;19.34;87.63;100026.86;1616777;87;20143;-86
2021/08/04 12:49:43;;;;;;;;;;;;;;;19.46;87.50;100018.92;1639062;85;20228;-88